Terminal Aerodrome Forecast
Issued by NWS Pocatello, ID

Home | Current Version | Previous Version | Text Only | Print | Product List | Glossary On
Versions: 1 2 3 4 5 6 7 8 9 10 11 12 13 14
269
FTUS45 KPIH 230117 AAA
TAFPIH
TAF AMD
KPIH 230117Z 2301/2324 24010KT P6SM BKN080
     FM230400 04007KT P6SM FEW080
     FM231900 27008KT P6SM SKC=

USA.gov is the U.S. government's official web portal to all federal, state and local government web resources and services.